sensor_id;sensor_type;location;lat;lon;timestamp;temperature;humidity
10304;DHT22;5197;48.152;8.590;2023-04-15T00:00:56;3.00;5.80
10304;DHT22;5197;48.152;8.590;2023-04-15T00:03:24;3.00;5.60
10304;DHT22;5197;48.152;8.590;2023-04-15T00:05:51;3.00;5.80
10304;DHT22;5197;48.152;8.590;2023-04-15T00:08:18;2.90;5.60
10304;DHT22;5197;48.152;8.590;2023-04-15T00:10:46;2.80;5.70
10304;DHT22;5197;48.152;8.590;2023-04-15T00:13:13;2.80;5.70
10304;DHT22;5197;48.152;8.590;2023-04-15T00:15:41;2.70;5.80
10304;DHT22;5197;48.152;8.590;2023-04-15T00:18:08;2.70;5.90
10304;DHT22;5197;48.152;8.590;2023-04-15T00:20:35;2.70;6.00
10304;DHT22;5197;48.152;8.590;2023-04-15T00:23:02;2.70;6.00
10304;DHT22;5197;48.152;8.590;2023-04-15T00:25:30;2.60;5.90
10304;DHT22;5197;48.152;8.590;2023-04-15T00:27:57;2.70;5.80
10304;DHT22;5197;48.152;8.590;2023-04-15T00:30:24;2.60;5.80
10304;DHT22;5197;48.152;8.590;2023-04-15T00:32:52;2.60;5.80
10304;DHT22;5197;48.152;8.590;2023-04-15T00:35:19;2.60;5.70
10304;DHT22;5197;48.152;8.590;2023-04-15T00:37:46;2.60;5.60
10304;DHT22;5197;48.152;8.590;2023-04-15T00:40:16;2.50;5.70
10304;DHT22;5197;48.152;8.590;2023-04-15T00:42:44;2.50;5.60
10304;DHT22;5197;48.152;8.590;2023-04-15T00:45:11;2.40;5.70
10304;DHT22;5197;48.152;8.590;2023-04-15T00:47:40;2.40;5.80
10304;DHT22;5197;48.152;8.590;2023-04-15T00:50:08;2.40;6.00
10304;DHT22;5197;48.152;8.590;2023-04-15T00:52:35;2.40;6.00
10304;DHT22;5197;48.152;8.590;2023-04-15T00:55:02;2.30;5.80
10304;DHT22;5197;48.152;8.590;2023-04-15T00:57:30;2.30;6.00
10304;DHT22;5197;48.152;8.590;2023-04-15T00:59:57;2.20;6.00
10304;DHT22;5197;48.152;8.590;2023-04-15T01:02:25;2.20;6.10
10304;DHT22;5197;48.152;8.590;2023-04-15T01:04:53;2.10;6.40
10304;DHT22;5197;48.152;8.590;2023-04-15T01:07:20;2.20;6.40
10304;DHT22;5197;48.152;8.590;2023-04-15T01:09:46;2.10;6.40
10304;DHT22;5197;48.152;8.590;2023-04-15T01:12:13;2.10;6.40
10304;DHT22;5197;48.152;8.590;2023-04-15T01:14:43;2.10;6.40
10304;DHT22;5197;48.152;8.590;2023-04-15T01:17:10;2.00;6.50
10304;DHT22;5197;48.152;8.590;2023-04-15T01:19:38;2.00;6.60
10304;DHT22;5197;48.152;8.590;2023-04-15T01:22:05;2.00;6.70
10304;DHT22;5197;48.152;8.590;2023-04-15T01:24:32;2.00;6.80
10304;DHT22;5197;48.152;8.590;2023-04-15T01:27:00;2.00;6.80
10304;DHT22;5197;48.152;8.590;2023-04-15T01:29:27;2.00;6.70
10304;DHT22;5197;48.152;8.590;2023-04-15T01:31:55;1.90;6.60
10304;DHT22;5197;48.152;8.590;2023-04-15T01:34:22;1.90;6.60
10304;DHT22;5197;48.152;8.590;2023-04-15T01:36:49;1.80;7.00
10304;DHT22;5197;48.152;8.590;2023-04-15T01:39:16;1.70;7.10
10304;DHT22;5197;48.152;8.590;2023-04-15T01:41:43;1.60;7.30
10304;DHT22;5197;48.152;8.590;2023-04-15T01:44:10;1.60;7.50
10304;DHT22;5197;48.152;8.590;2023-04-15T01:46:37;1.50;7.60
10304;DHT22;5197;48.152;8.590;2023-04-15T01:49:04;1.40;7.60
10304;DHT22;5197;48.152;8.590;2023-04-15T01:51:30;1.40;8.00
10304;DHT22;5197;48.152;8.590;2023-04-15T01:53:57;1.40;8.00
10304;DHT22;5197;48.152;8.590;2023-04-15T01:56:24;1.30;8.20
10304;DHT22;5197;48.152;8.590;2023-04-15T01:58:52;1.20;8.20
10304;DHT22;5197;48.152;8.590;2023-04-15T02:01:19;1.30;9.70
10304;DHT22;5197;48.152;8.590;2023-04-15T02:03:46;1.20;8.70
10304;DHT22;5197;48.152;8.590;2023-04-15T02:06:14;1.30;8.80
10304;DHT22;5197;48.152;8.590;2023-04-15T02:08:41;1.20;9.10
10304;DHT22;5197;48.152;8.590;2023-04-15T02:11:08;1.20;9.40
10304;DHT22;5197;48.152;8.590;2023-04-15T02:13:34;1.10;9.30
10304;DHT22;5197;48.152;8.590;2023-04-15T02:16:02;1.20;9.10
10304;DHT22;5197;48.152;8.590;2023-04-15T02:18:29;1.10;9.10
10304;DHT22;5197;48.152;8.590;2023-04-15T02:20:56;1.20;9.30
10304;DHT22;5197;48.152;8.590;2023-04-15T02:23:24;1.20;9.20
10304;DHT22;5197;48.152;8.590;2023-04-15T02:25:51;1.20;9.30
10304;DHT22;5197;48.152;8.590;2023-04-15T02:28:20;1.20;9.30
10304;DHT22;5197;48.152;8.590;2023-04-15T02:30:48;1.30;9.20
10304;DHT22;5197;48.152;8.590;2023-04-15T02:33:20;1.30;9.00
10304;DHT22;5197;48.152;8.590;2023-04-15T02:35:47;1.20;9.00
10304;DHT22;5197;48.152;8.590;2023-04-15T02:38:14;1.30;9.30
10304;DHT22;5197;48.152;8.590;2023-04-15T02:40:42;1.30;9.60
10304;DHT22;5197;48.152;8.590;2023-04-15T02:43:09;1.20;9.60
10304;DHT22;5197;48.152;8.590;2023-04-15T02:45:36;1.20;9.70
10304;DHT22;5197;48.152;8.590;2023-04-15T02:48:03;1.20;9.70
10304;DHT22;5197;48.152;8.590;2023-04-15T02:50:32;1.10;9.60
10304;DHT22;5197;48.152;8.590;2023-04-15T02:52:59;1.10;9.80
10304;DHT22;5197;48.152;8.590;2023-04-15T02:55:27;1.00;9.70
10304;DHT22;5197;48.152;8.590;2023-04-15T02:57:54;0.90;9.70
10304;DHT22;5197;48.152;8.590;2023-04-15T03:00:21;0.80;10.00
10304;DHT22;5197;48.152;8.590;2023-04-15T03:02:51;1.10;10.20
10304;DHT22;5197;48.152;8.590;2023-04-15T03:05:22;0.80;10.00
10304;DHT22;5197;48.152;8.590;2023-04-15T03:07:51;0.80;10.10
10304;DHT22;5197;48.152;8.590;2023-04-15T03:10:17;0.70;9.90
10304;DHT22;5197;48.152;8.590;2023-04-15T03:12:44;0.70;10.00
10304;DHT22;5197;48.152;8.590;2023-04-15T03:15:11;0.80;10.10
10304;DHT22;5197;48.152;8.590;2023-04-15T03:17:38;0.70;10.00
10304;DHT22;5197;48.152;8.590;2023-04-15T03:20:05;0.70;10.20
10304;DHT22;5197;48.152;8.590;2023-04-15T03:22:33;0.70;10.20
10304;DHT22;5197;48.152;8.590;2023-04-15T03:25:00;0.70;10.50
10304;DHT22;5197;48.152;8.590;2023-04-15T03:27:27;0.70;10.80
10304;DHT22;5197;48.152;8.590;2023-04-15T03:29:54;0.70;10.70
10304;DHT22;5197;48.152;8.590;2023-04-15T03:32:22;0.70;10.70
10304;DHT22;5197;48.152;8.590;2023-04-15T03:34:49;0.70;10.90
10304;DHT22;5197;48.152;8.590;2023-04-15T03:37:15;0.80;11.30
10304;DHT22;5197;48.152;8.590;2023-04-15T03:39:42;0.80;11.40
10304;DHT22;5197;48.152;8.590;2023-04-15T03:42:09;0.80;11.70
10304;DHT22;5197;48.152;8.590;2023-04-15T03:44:36;0.80;11.60
10304;DHT22;5197;48.152;8.590;2023-04-15T03:47:03;0.80;11.60
10304;DHT22;5197;48.152;8.590;2023-04-15T03:49:30;0.80;11.30
10304;DHT22;5197;48.152;8.590;2023-04-15T03:51:57;0.70;11.60
10304;DHT22;5197;48.152;8.590;2023-04-15T03:54:25;0.70;11.70
10304;DHT22;5197;48.152;8.590;2023-04-15T03:56:52;0.60;11.80
10304;DHT22;5197;48.152;8.590;2023-04-15T03:59:18;0.60;11.80
10304;DHT22;5197;48.152;8.590;2023-04-15T04:01:45;0.60;11.70
10304;DHT22;5197;48.152;8.590;2023-04-15T04:04:12;0.60;11.80
10304;DHT22;5197;48.152;8.590;2023-04-15T04:06:39;0.60;11.70
10304;DHT22;5197;48.152;8.590;2023-04-15T04:09:06;0.60;11.60
10304;DHT22;5197;48.152;8.590;2023-04-15T04:11:33;0.60;11.60
10304;DHT22;5197;48.152;8.590;2023-04-15T04:13:59;0.60;11.70
10304;DHT22;5197;48.152;8.590;2023-04-15T04:16:26;0.60;11.70
10304;DHT22;5197;48.152;8.590;2023-04-15T04:18:53;0.60;11.80
10304;DHT22;5197;48.152;8.590;2023-04-15T04:21:20;0.60;11.90
10304;DHT22;5197;48.152;8.590;2023-04-15T04:23:47;0.60;11.90
10304;DHT22;5197;48.152;8.590;2023-04-15T04:26:14;0.60;11.90
10304;DHT22;5197;48.152;8.590;2023-04-15T04:28:40;0.70;12.00
10304;DHT22;5197;48.152;8.590;2023-04-15T04:31:07;0.60;12.10
10304;DHT22;5197;48.152;8.590;2023-04-15T04:33:34;0.60;12.10
10304;DHT22;5197;48.152;8.590;2023-04-15T04:36:01;0.70;12.00
10304;DHT22;5197;48.152;8.590;2023-04-15T04:38:28;0.60;12.00
10304;DHT22;5197;48.152;8.590;2023-04-15T04:40:55;0.60;12.00
10304;DHT22;5197;48.152;8.590;2023-04-15T04:43:21;0.60;12.00
10304;DHT22;5197;48.152;8.590;2023-04-15T04:45:48;0.70;12.20
10304;DHT22;5197;48.152;8.590;2023-04-15T04:48:15;0.70;12.30
10304;DHT22;5197;48.152;8.590;2023-04-15T04:50:43;0.70;12.30
10304;DHT22;5197;48.152;8.590;2023-04-15T04:53:10;0.70;12.30
10304;DHT22;5197;48.152;8.590;2023-04-15T04:55:37;0.70;12.40
10304;DHT22;5197;48.152;8.590;2023-04-15T04:58:04;0.70;12.50
10304;DHT22;5197;48.152;8.590;2023-04-15T05:00:31;0.70;12.80
10304;DHT22;5197;48.152;8.590;2023-04-15T05:02:58;0.80;12.80
10304;DHT22;5197;48.152;8.590;2023-04-15T05:05:25;0.80;12.80
10304;DHT22;5197;48.152;8.590;2023-04-15T05:07:52;0.90;12.90
10304;DHT22;5197;48.152;8.590;2023-04-15T05:10:19;0.90;13.10
10304;DHT22;5197;48.152;8.590;2023-04-15T05:12:46;1.00;13.20
10304;DHT22;5197;48.152;8.590;2023-04-15T05:15:13;1.00;13.40
10304;DHT22;5197;48.152;8.590;2023-04-15T05:17:40;1.10;13.60
10304;DHT22;5197;48.152;8.590;2023-04-15T05:20:07;1.10;13.50
10304;DHT22;5197;48.152;8.590;2023-04-15T05:22:34;1.20;13.70
10304;DHT22;5197;48.152;8.590;2023-04-15T05:25:00;1.20;13.80
10304;DHT22;5197;48.152;8.590;2023-04-15T05:27:27;1.20;14.10
10304;DHT22;5197;48.152;8.590;2023-04-15T05:29:54;1.30;14.30
10304;DHT22;5197;48.152;8.590;2023-04-15T05:32:22;1.40;14.50
10304;DHT22;5197;48.152;8.590;2023-04-15T05:34:48;1.40;14.50
10304;DHT22;5197;48.152;8.590;2023-04-15T05:37:15;1.50;15.20
10304;DHT22;5197;48.152;8.590;2023-04-15T05:39:42;1.60;15.80
10304;DHT22;5197;48.152;8.590;2023-04-15T05:42:10;1.60;16.10
10304;DHT22;5197;48.152;8.590;2023-04-15T05:44:37;1.70;16.40
10304;DHT22;5197;48.152;8.590;2023-04-15T05:47:03;1.80;16.40
10304;DHT22;5197;48.152;8.590;2023-04-15T05:49:31;1.80;16.50
10304;DHT22;5197;48.152;8.590;2023-04-15T05:51:58;1.80;16.40
10304;DHT22;5197;48.152;8.590;2023-04-15T05:54:25;1.90;16.40
10304;DHT22;5197;48.152;8.590;2023-04-15T05:56:53;2.00;17.50
10304;DHT22;5197;48.152;8.590;2023-04-15T05:59:20;2.10;15.70
10304;DHT22;5197;48.152;8.590;2023-04-15T06:01:47;2.20;16.60
10304;DHT22;5197;48.152;8.590;2023-04-15T06:04:15;2.30;15.50
10304;DHT22;5197;48.152;8.590;2023-04-15T06:06:42;2.30;15.50
10304;DHT22;5197;48.152;8.590;2023-04-15T06:09:10;2.40;14.70
10304;DHT22;5197;48.152;8.590;2023-04-15T06:11:37;2.50;15.00
10304;DHT22;5197;48.152;8.590;2023-04-15T06:14:03;2.60;14.40
10304;DHT22;5197;48.152;8.590;2023-04-15T06:16:30;2.70;14.20
10304;DHT22;5197;48.152;8.590;2023-04-15T06:18:58;2.80;14.10
10304;DHT22;5197;48.152;8.590;2023-04-15T06:21:25;2.90;14.00
10304;DHT22;5197;48.152;8.590;2023-04-15T06:23:52;3.00;14.10
10304;DHT22;5197;48.152;8.590;2023-04-15T06:26:19;3.10;14.20
10304;DHT22;5197;48.152;8.590;2023-04-15T06:28:46;3.20;14.20
10304;DHT22;5197;48.152;8.590;2023-04-15T06:31:13;3.30;14.30
10304;DHT22;5197;48.152;8.590;2023-04-15T06:33:40;3.40;14.30
10304;DHT22;5197;48.152;8.590;2023-04-15T06:36:07;3.50;14.40
10304;DHT22;5197;48.152;8.590;2023-04-15T06:38:33;3.90;14.60
10304;DHT22;5197;48.152;8.590;2023-04-15T06:41:01;3.70;14.40
10304;DHT22;5197;48.152;8.590;2023-04-15T06:43:28;3.80;14.40
10304;DHT22;5197;48.152;8.590;2023-04-15T06:45:56;3.90;14.40
10304;DHT22;5197;48.152;8.590;2023-04-15T06:48:25;3.90;14.40
10304;DHT22;5197;48.152;8.590;2023-04-15T06:50:53;4.10;14.80
10304;DHT22;5197;48.152;8.590;2023-04-15T06:53:21;4.30;14.70
10304;DHT22;5197;48.152;8.590;2023-04-15T06:55:48;4.40;14.30
10304;DHT22;5197;48.152;8.590;2023-04-15T06:58:15;4.50;14.30
10304;DHT22;5197;48.152;8.590;2023-04-15T07:00:42;4.70;14.40
10304;DHT22;5197;48.152;8.590;2023-04-15T07:03:11;4.80;14.70
10304;DHT22;5197;48.152;8.590;2023-04-15T07:05:38;5.20;15.30
10304;DHT22;5197;48.152;8.590;2023-04-15T07:08:06;5.50;15.20
10304;DHT22;5197;48.152;8.590;2023-04-15T07:10:33;5.70;14.40
10304;DHT22;5197;48.152;8.590;2023-04-15T07:13:00;6.10;15.40
10304;DHT22;5197;48.152;8.590;2023-04-15T07:15:27;6.40;14.20
10304;DHT22;5197;48.152;8.590;2023-04-15T07:17:54;6.90;13.50
10304;DHT22;5197;48.152;8.590;2023-04-15T07:20:21;7.20;12.30
10304;DHT22;5197;48.152;8.590;2023-04-15T07:22:48;7.60;11.40
10304;DHT22;5197;48.152;8.590;2023-04-15T07:25:15;7.90;11.20
10304;DHT22;5197;48.152;8.590;2023-04-15T07:27:43;8.00;9.10
10304;DHT22;5197;48.152;8.590;2023-04-15T07:30:10;8.40;9.00
10304;DHT22;5197;48.152;8.590;2023-04-15T07:32:38;8.70;8.40
10304;DHT22;5197;48.152;8.590;2023-04-15T07:35:05;9.00;6.70
10304;DHT22;5197;48.152;8.590;2023-04-15T07:37:32;9.10;5.10
10304;DHT22;5197;48.152;8.590;2023-04-15T07:39:59;9.20;4.80
10304;DHT22;5197;48.152;8.590;2023-04-15T07:42:26;9.30;4.80
10304;DHT22;5197;48.152;8.590;2023-04-15T07:44:53;9.50;4.30
10304;DHT22;5197;48.152;8.590;2023-04-15T07:47:20;10.00;2.80
10304;DHT22;5197;48.152;8.590;2023-04-15T07:49:47;10.30;1.50
10304;DHT22;5197;48.152;8.590;2023-04-15T07:52:14;10.80;1.00
10304;DHT22;5197;48.152;8.590;2023-04-15T07:54:42;11.00;1.00
10304;DHT22;5197;48.152;8.590;2023-04-15T07:57:09;12.90;1.00
10304;DHT22;5197;48.152;8.590;2023-04-15T07:59:36;13.80;1.00
10304;DHT22;5197;48.152;8.590;2023-04-15T08:02:03;12.00;1.00
10304;DHT22;5197;48.152;8.590;2023-04-15T08:04:29;12.40;1.00
10304;DHT22;5197;48.152;8.590;2023-04-15T08:06:57;12.90;1.00
10304;DHT22;5197;48.152;8.590;2023-04-15T08:09:24;13.10;1.00
10304;DHT22;5197;48.152;8.590;2023-04-15T08:11:50;14.60;1.00
10304;DHT22;5197;48.152;8.590;2023-04-15T08:14:17;13.40;1.00
10304;DHT22;5197;48.152;8.590;2023-04-15T08:16:44;13.50;1.00
10304;DHT22;5197;48.152;8.590;2023-04-15T08:19:11;13.60;1.00
10304;DHT22;5197;48.152;8.590;2023-04-15T08:21:38;13.60;1.00
10304;DHT22;5197;48.152;8.590;2023-04-15T08:24:06;13.50;1.00
10304;DHT22;5197;48.152;8.590;2023-04-15T08:26:33;13.50;1.00
10304;DHT22;5197;48.152;8.590;2023-04-15T08:29:00;13.90;1.00
10304;DHT22;5197;48.152;8.590;2023-04-15T08:31:28;13.30;1.00
10304;DHT22;5197;48.152;8.590;2023-04-15T08:33:56;12.90;1.00
10304;DHT22;5197;48.152;8.590;2023-04-15T08:36:23;12.70;1.00
10304;DHT22;5197;48.152;8.590;2023-04-15T08:38:50;12.60;1.00
10304;DHT22;5197;48.152;8.590;2023-04-15T08:41:21;12.70;1.00
10304;DHT22;5197;48.152;8.590;2023-04-15T08:43:56;12.80;1.00
10304;DHT22;5197;48.152;8.590;2023-04-15T08:46:23;13.20;1.00
10304;DHT22;5197;48.152;8.590;2023-04-15T08:48:50;12.70;1.00
10304;DHT22;5197;48.152;8.590;2023-04-15T08:51:17;12.70;1.00
10304;DHT22;5197;48.152;8.590;2023-04-15T08:53:45;12.80;1.00
10304;DHT22;5197;48.152;8.590;2023-04-15T08:56:14;12.80;1.00
10304;DHT22;5197;48.152;8.590;2023-04-15T08:58:43;12.80;1.00
10304;DHT22;5197;48.152;8.590;2023-04-15T09:01:11;12.80;1.00
10304;DHT22;5197;48.152;8.590;2023-04-15T09:03:39;14.10;1.00
10304;DHT22;5197;48.152;8.590;2023-04-15T09:06:06;13.40;1.00
10304;DHT22;5197;48.152;8.590;2023-04-15T09:08:33;13.00;1.00
10304;DHT22;5197;48.152;8.590;2023-04-15T09:11:02;14.40;1.00
10304;DHT22;5197;48.152;8.590;2023-04-15T09:13:29;13.60;1.00
10304;DHT22;5197;48.152;8.590;2023-04-15T09:15:56;13.00;1.00
10304;DHT22;5197;48.152;8.590;2023-04-15T09:18:32;14.60;1.00
10304;DHT22;5197;48.152;8.590;2023-04-15T09:21:07;13.10;1.00
10304;DHT22;5197;48.152;8.590;2023-04-15T09:23:38;12.90;1.00
10304;DHT22;5197;48.152;8.590;2023-04-15T09:26:05;12.80;1.00
10304;DHT22;5197;48.152;8.590;2023-04-15T09:28:33;12.60;1.00
10304;DHT22;5197;48.152;8.590;2023-04-15T09:31:10;12.40;1.00
10304;DHT22;5197;48.152;8.590;2023-04-15T09:33:54;12.30;1.00
10304;DHT22;5197;48.152;8.590;2023-04-15T09:36:22;12.20;1.00
10304;DHT22;5197;48.152;8.590;2023-04-15T09:38:55;12.10;1.00
10304;DHT22;5197;48.152;8.590;2023-04-15T09:42:04;12.30;1.00
10304;DHT22;5197;48.152;8.590;2023-04-15T09:44:32;12.50;1.00
10304;DHT22;5197;48.152;8.590;2023-04-15T09:47:05;12.60;1.00
10304;DHT22;5197;48.152;8.590;2023-04-15T09:49:32;12.60;1.00
10304;DHT22;5197;48.152;8.590;2023-04-15T09:52:01;12.50;1.00
10304;DHT22;5197;48.152;8.590;2023-04-15T09:54:37;12.40;1.00
10304;DHT22;5197;48.152;8.590;2023-04-15T09:57:08;12.10;1.00
10304;DHT22;5197;48.152;8.590;2023-04-15T09:59:39;11.80;1.00
10304;DHT22;5197;48.152;8.590;2023-04-15T10:02:06;11.60;1.00
10304;DHT22;5197;48.152;8.590;2023-04-15T10:04:35;11.70;1.00
10304;DHT22;5197;48.152;8.590;2023-04-15T10:07:07;11.80;1.00
10304;DHT22;5197;48.152;8.590;2023-04-15T10:09:48;12.20;1.00
10304;DHT22;5197;48.152;8.590;2023-04-15T10:12:18;12.60;1.00
10304;DHT22;5197;48.152;8.590;2023-04-15T10:14:55;12.70;1.00
10304;DHT22;5197;48.152;8.590;2023-04-15T10:17:28;12.80;1.00
10304;DHT22;5197;48.152;8.590;2023-04-15T10:20:00;12.80;1.00
10304;DHT22;5197;48.152;8.590;2023-04-15T10:22:29;12.60;1.00
10304;DHT22;5197;48.152;8.590;2023-04-15T10:24:56;12.50;1.00
10304;DHT22;5197;48.152;8.590;2023-04-15T10:27:25;12.50;1.00
10304;DHT22;5197;48.152;8.590;2023-04-15T10:29:53;12.80;1.00
10304;DHT22;5197;48.152;8.590;2023-04-15T10:32:24;12.50;1.00
10304;DHT22;5197;48.152;8.590;2023-04-15T10:34:53;12.60;1.00
10304;DHT22;5197;48.152;8.590;2023-04-15T10:37:24;12.50;1.00
10304;DHT22;5197;48.152;8.590;2023-04-15T10:39:58;12.50;1.00
10304;DHT22;5197;48.152;8.590;2023-04-15T10:42:33;12.50;1.00
10304;DHT22;5197;48.152;8.590;2023-04-15T10:45:00;12.30;1.00
10304;DHT22;5197;48.152;8.590;2023-04-15T10:47:27;12.00;1.00
10304;DHT22;5197;48.152;8.590;2023-04-15T10:49:58;11.80;1.00
10304;DHT22;5197;48.152;8.590;2023-04-15T10:52:27;11.70;1.00
10304;DHT22;5197;48.152;8.590;2023-04-15T10:57:40;11.60;1.00
10304;DHT22;5197;48.152;8.590;2023-04-15T11:05:19;12.10;1.00
10304;DHT22;5197;48.152;8.590;2023-04-15T11:07:54;12.10;1.00
10304;DHT22;5197;48.152;8.590;2023-04-15T11:10:49;12.40;1.00
10304;DHT22;5197;48.152;8.590;2023-04-15T11:15:45;12.80;1.00
10304;DHT22;5197;48.152;8.590;2023-04-15T11:20:56;13.00;1.00
10304;DHT22;5197;48.152;8.590;2023-04-15T11:25:59;12.50;1.00
10304;DHT22;5197;48.152;8.590;2023-04-15T11:28:29;12.40;1.00
10304;DHT22;5197;48.152;8.590;2023-04-15T11:30:57;11.90;1.00
10304;DHT22;5197;48.152;8.590;2023-04-15T11:33:25;11.80;1.00
10304;DHT22;5197;48.152;8.590;2023-04-15T11:35:53;11.50;1.00
10304;DHT22;5197;48.152;8.590;2023-04-15T11:38:21;11.60;1.00
10304;DHT22;5197;48.152;8.590;2023-04-15T11:40:49;11.70;1.00
10304;DHT22;5197;48.152;8.590;2023-04-15T11:43:19;11.90;1.00
10304;DHT22;5197;48.152;8.590;2023-04-15T11:45:55;12.10;1.00
10304;DHT22;5197;48.152;8.590;2023-04-15T11:48:27;12.30;1.00
10304;DHT22;5197;48.152;8.590;2023-04-15T11:51:00;12.30;1.00
10304;DHT22;5197;48.152;8.590;2023-04-15T11:53:46;12.10;1.00
10304;DHT22;5197;48.152;8.590;2023-04-15T11:56:18;11.90;1.00
10304;DHT22;5197;48.152;8.590;2023-04-15T11:58:46;11.80;1.00
10304;DHT22;5197;48.152;8.590;2023-04-15T12:01:13;12.00;1.00
10304;DHT22;5197;48.152;8.590;2023-04-15T12:03:41;12.00;1.00
10304;DHT22;5197;48.152;8.590;2023-04-15T12:06:23;12.10;1.00
10304;DHT22;5197;48.152;8.590;2023-04-15T12:11:49;12.00;1.00
10304;DHT22;5197;48.152;8.590;2023-04-15T12:14:27;11.90;1.00
10304;DHT22;5197;48.152;8.590;2023-04-15T12:16:59;11.90;1.00
10304;DHT22;5197;48.152;8.590;2023-04-15T12:21:59;11.20;1.00
10304;DHT22;5197;48.152;8.590;2023-04-15T12:24:27;11.00;1.00
10304;DHT22;5197;48.152;8.590;2023-04-15T12:26:56;11.00;1.00
10304;DHT22;5197;48.152;8.590;2023-04-15T12:29:27;10.90;1.00
10304;DHT22;5197;48.152;8.590;2023-04-15T12:34:37;11.10;1.00
10304;DHT22;5197;48.152;8.590;2023-04-15T12:37:06;11.00;1.00
10304;DHT22;5197;48.152;8.590;2023-04-15T12:39:37;11.00;1.00
10304;DHT22;5197;48.152;8.590;2023-04-15T12:42:05;11.00;1.00
10304;DHT22;5197;48.152;8.590;2023-04-15T12:44:32;11.10;1.00
10304;DHT22;5197;48.152;8.590;2023-04-15T12:46:59;11.20;1.00
10304;DHT22;5197;48.152;8.590;2023-04-15T12:49:27;11.20;1.00
10304;DHT22;5197;48.152;8.590;2023-04-15T12:51:55;11.20;1.00
10304;DHT22;5197;48.152;8.590;2023-04-15T12:54:23;11.20;1.00
10304;DHT22;5197;48.152;8.590;2023-04-15T12:56:50;11.20;1.00
10304;DHT22;5197;48.152;8.590;2023-04-15T12:59:16;11.30;1.00
10304;DHT22;5197;48.152;8.590;2023-04-15T13:01:45;11.40;1.00
10304;DHT22;5197;48.152;8.590;2023-04-15T13:04:13;11.50;1.00
10304;DHT22;5197;48.152;8.590;2023-04-15T13:06:41;11.50;1.00
10304;DHT22;5197;48.152;8.590;2023-04-15T13:09:08;11.50;1.00
10304;DHT22;5197;48.152;8.590;2023-04-15T13:11:34;11.60;1.00
10304;DHT22;5197;48.152;8.590;2023-04-15T13:14:07;11.70;1.00
10304;DHT22;5197;48.152;8.590;2023-04-15T13:16:34;11.50;1.00
10304;DHT22;5197;48.152;8.590;2023-04-15T13:19:02;13.10;1.00
10304;DHT22;5197;48.152;8.590;2023-04-15T13:21:29;11.40;1.00
10304;DHT22;5197;48.152;8.590;2023-04-15T13:24:01;11.40;1.00
10304;DHT22;5197;48.152;8.590;2023-04-15T13:26:28;11.30;1.00
10304;DHT22;5197;48.152;8.590;2023-04-15T13:28:54;11.40;1.00
10304;DHT22;5197;48.152;8.590;2023-04-15T13:31:22;11.50;1.00
10304;DHT22;5197;48.152;8.590;2023-04-15T13:33:48;11.70;1.00
10304;DHT22;5197;48.152;8.590;2023-04-15T13:36:15;11.80;1.00
10304;DHT22;5197;48.152;8.590;2023-04-15T13:38:42;12.60;1.00
10304;DHT22;5197;48.152;8.590;2023-04-15T13:41:09;11.90;1.00
10304;DHT22;5197;48.152;8.590;2023-04-15T13:43:36;11.80;1.00
10304;DHT22;5197;48.152;8.590;2023-04-15T13:46:03;11.90;1.00
10304;DHT22;5197;48.152;8.590;2023-04-15T13:48:30;12.00;1.00
10304;DHT22;5197;48.152;8.590;2023-04-15T13:50:57;11.80;1.00
10304;DHT22;5197;48.152;8.590;2023-04-15T13:53:23;11.80;1.00
10304;DHT22;5197;48.152;8.590;2023-04-15T13:56:06;11.90;1.00
10304;DHT22;5197;48.152;8.590;2023-04-15T13:58:33;12.00;1.00
10304;DHT22;5197;48.152;8.590;2023-04-15T14:01:00;12.00;1.00
10304;DHT22;5197;48.152;8.590;2023-04-15T14:03:29;12.20;1.00
10304;DHT22;5197;48.152;8.590;2023-04-15T14:05:56;12.10;1.00
10304;DHT22;5197;48.152;8.590;2023-04-15T14:08:24;11.90;1.00
10304;DHT22;5197;48.152;8.590;2023-04-15T14:10:51;11.60;1.00
10304;DHT22;5197;48.152;8.590;2023-04-15T14:13:18;11.70;1.00
10304;DHT22;5197;48.152;8.590;2023-04-15T14:15:45;11.70;1.00
10304;DHT22;5197;48.152;8.590;2023-04-15T14:18:12;11.60;1.00
10304;DHT22;5197;48.152;8.590;2023-04-15T14:20:39;11.50;1.00
10304;DHT22;5197;48.152;8.590;2023-04-15T14:23:06;11.50;1.00
10304;DHT22;5197;48.152;8.590;2023-04-15T14:25:33;11.60;1.00
10304;DHT22;5197;48.152;8.590;2023-04-15T14:28:00;11.60;1.00
10304;DHT22;5197;48.152;8.590;2023-04-15T14:30:27;11.60;1.00
10304;DHT22;5197;48.152;8.590;2023-04-15T14:32:54;11.70;1.00
10304;DHT22;5197;48.152;8.590;2023-04-15T14:35:21;11.70;1.00
10304;DHT22;5197;48.152;8.590;2023-04-15T14:37:52;11.80;1.00
10304;DHT22;5197;48.152;8.590;2023-04-15T14:40:19;11.90;1.00
10304;DHT22;5197;48.152;8.590;2023-04-15T14:42:46;12.10;1.00
10304;DHT22;5197;48.152;8.590;2023-04-15T14:45:12;12.10;1.00
10304;DHT22;5197;48.152;8.590;2023-04-15T14:47:39;11.80;1.00
10304;DHT22;5197;48.152;8.590;2023-04-15T14:50:07;11.90;1.00
10304;DHT22;5197;48.152;8.590;2023-04-15T14:52:34;11.80;1.00
10304;DHT22;5197;48.152;8.590;2023-04-15T14:55:09;11.70;1.00
10304;DHT22;5197;48.152;8.590;2023-04-15T14:57:37;13.20;1.00
10304;DHT22;5197;48.152;8.590;2023-04-15T15:00:05;11.80;1.00
10304;DHT22;5197;48.152;8.590;2023-04-15T15:02:33;11.90;1.00
10304;DHT22;5197;48.152;8.590;2023-04-15T15:05:06;11.80;1.00
10304;DHT22;5197;48.152;8.590;2023-04-15T15:07:35;12.00;1.00
10304;DHT22;5197;48.152;8.590;2023-04-15T15:10:07;12.00;1.00
10304;DHT22;5197;48.152;8.590;2023-04-15T15:12:34;12.10;1.00
10304;DHT22;5197;48.152;8.590;2023-04-15T15:15:03;12.00;1.00
10304;DHT22;5197;48.152;8.590;2023-04-15T15:17:41;11.90;1.00
10304;DHT22;5197;48.152;8.590;2023-04-15T15:20:08;11.70;1.00
10304;DHT22;5197;48.152;8.590;2023-04-15T15:22:35;11.60;1.00
10304;DHT22;5197;48.152;8.590;2023-04-15T15:25:02;11.60;1.00
10304;DHT22;5197;48.152;8.590;2023-04-15T15:27:29;11.70;1.00
10304;DHT22;5197;48.152;8.590;2023-04-15T15:29:57;11.60;1.00
10304;DHT22;5197;48.152;8.590;2023-04-15T15:32:24;11.60;1.00
10304;DHT22;5197;48.152;8.590;2023-04-15T15:34:51;11.60;1.00
10304;DHT22;5197;48.152;8.590;2023-04-15T15:37:18;11.60;1.00
10304;DHT22;5197;48.152;8.590;2023-04-15T15:39:45;11.50;1.00
10304;DHT22;5197;48.152;8.590;2023-04-15T15:42:12;11.40;1.00
10304;DHT22;5197;48.152;8.590;2023-04-15T15:44:39;13.10;1.00
10304;DHT22;5197;48.152;8.590;2023-04-15T15:47:06;11.20;1.00
10304;DHT22;5197;48.152;8.590;2023-04-15T15:49:33;11.10;1.00
10304;DHT22;5197;48.152;8.590;2023-04-15T15:52:00;11.10;1.00
10304;DHT22;5197;48.152;8.590;2023-04-15T15:54:27;11.10;1.00
10304;DHT22;5197;48.152;8.590;2023-04-15T15:56:54;11.20;1.00
10304;DHT22;5197;48.152;8.590;2023-04-15T15:59:23;11.10;1.00
10304;DHT22;5197;48.152;8.590;2023-04-15T16:01:51;11.10;1.00
10304;DHT22;5197;48.152;8.590;2023-04-15T16:04:18;10.90;1.00
10304;DHT22;5197;48.152;8.590;2023-04-15T16:06:45;10.90;1.00
10304;DHT22;5197;48.152;8.590;2023-04-15T16:09:12;10.90;1.00
10304;DHT22;5197;48.152;8.590;2023-04-15T16:11:40;10.80;1.00
10304;DHT22;5197;48.152;8.590;2023-04-15T16:14:07;10.90;1.00
10304;DHT22;5197;48.152;8.590;2023-04-15T16:16:34;10.90;1.00
10304;DHT22;5197;48.152;8.590;2023-04-15T16:19:01;10.80;1.00
10304;DHT22;5197;48.152;8.590;2023-04-15T16:21:28;11.60;1.00
10304;DHT22;5197;48.152;8.590;2023-04-15T16:23:56;10.80;1.00
10304;DHT22;5197;48.152;8.590;2023-04-15T16:26:23;10.80;1.00
10304;DHT22;5197;48.152;8.590;2023-04-15T16:28:51;10.70;1.00
10304;DHT22;5197;48.152;8.590;2023-04-15T16:31:18;10.70;1.00
10304;DHT22;5197;48.152;8.590;2023-04-15T16:33:45;10.50;1.00